Portada
METAR-TAF:

METAR-TAF

Aeroports :

Conakry, Guinea

latitud: 09-34N, longitud: 013-37W, altitud: 26 m

Observació

L'informe es va fer fa 48 minuts, a les 07:00 UTC
Vent 4 kt del Oest
Temperatura 24°C
Humitat 100%
Pressió 1013 hPa
Visibilitat: 8000 m
Cel ennuvolat a una alçada de 1100 ft
Cel ennuvolat a una alçada de 10000 ft
pluja

METAR: GUCY 190700Z 26004KT 8000 -RA BKN011 BKN100 24/24 Q1013 RETS NOSIG

Hora: 07:48 (07:48 UTC)

Pronòstic

L'informe es va fer fa 2 hores i 48 minuts, a les 05:00 UTC
Pronòstic vàlid del 19 a les 06 UTC al 20 a les 12 UTC
Vent 8 kt del Sud-Oest
Visibilitat 10 km o més
Núvols disperses a una alçada de 1500 ft
Cel ennuvolat a una alçada de 11000 ft
Temporalment
l' 19 a les 06 UTC al 19 a les 12 UTC
Vent 2 kt amb direcció variable
Visibilitat: 8000 m
Cel ennuvolat a una alçada de 1000 ft
Cel ennuvolat a una alçada de 10000 ft
pluja

TAF: GUCY 190500Z 1906/2012 22008KT 9999 SCT015 BKN110 TEMPO 1906/1912 VRB02KT 8000 -RA BKN010 BKN100

Observacions i pronòstics meteorològics de més de 4000 aeroports (METAR i TAF).

Les estacions disponibles són els punts grocs i vermells al mapa.

Posi el ratolí al punt desitjat per veure el nom de l'estació.

Feu clic per veure les observacions i els pronòstics meteorològics.

Per canviar el mapa: feu clic els botons verds amb una creu de color negre per apropar; al botó verd amb un guió per allunyar la imatge; o en les fletxes verdes per a mapes adjacents.


METAR-TAF: